<?xml version="1.0" encoding="UTF-8" standalone="no" ?>
<gpx xmlns="http://www.topografix.com/GPX/1/1" creator="" version="1.1" xmlns:xsi="http://www.w3.org/2001/XMLSchema-instance" xsi:schemaLocation="http://www.topografix.com/GPX/1/1 http://www.topografix.com/GPX/1/1/gpx.xsd">
 <trk>
  <name>ACTIVE LOG162224</name>
  <trkseg>
   <trkpt lat="39.465714" lon="-6.385463">
    <ele>363.462</ele>
    <time>2013-12-16T15:22:24Z</time>
   </trkpt>
  </trkseg>
 </trk>
 <trk>
  <name>ACTIVE LOG162327</name>
  <trkseg>
   <trkpt lat="39.465714" lon="-6.385463">
    <ele>363.752</ele>
    <time>2013-12-16T15:23:24Z</time>
   </trkpt>
  </trkseg>
 </trk>
 <trk>
  <name>ACTIVE LOG162306</name>
  <trkseg>
   <trkpt lat="39.440444" lon="-6.377482">
    <ele>363.686</ele>
    <time>2013-12-16T15:23:06Z</time>
   </trkpt>
   <trkpt lat="39.439203" lon="-6.377168">
    <ele>462.373</ele>
    <time>2013-12-16T15:25:04Z</time>
   </trkpt>
   <trkpt lat="39.438665" lon="-6.376259">
    <ele>468.956</ele>
    <time>2013-12-16T15:25:17Z</time>
   </trkpt>
   <trkpt lat="39.439546" lon="-6.375521">
    <ele>472.572</ele>
    <time>2013-12-16T15:25:26Z</time>
   </trkpt>
   <trkpt lat="39.440454" lon="-6.376033">
    <ele>471.113</ele>
    <time>2013-12-16T15:25:36Z</time>
   </trkpt>
   <trkpt lat="39.441272" lon="-6.376497">
    <ele>474.493</ele>
    <time>2013-12-16T15:25:45Z</time>
   </trkpt>
   <trkpt lat="39.442095" lon="-6.376291">
    <ele>474.752</ele>
    <time>2013-12-16T15:25:55Z</time>
   </trkpt>
   <trkpt lat="39.442701" lon="-6.375373">
    <ele>475.040</ele>
    <time>2013-12-16T15:26:05Z</time>
   </trkpt>
   <trkpt lat="39.443120" lon="-6.374330">
    <ele>476.101</ele>
    <time>2013-12-16T15:26:15Z</time>
   </trkpt>
   <trkpt lat="39.443356" lon="-6.373206">
    <ele>476.832</ele>
    <time>2013-12-16T15:26:25Z</time>
   </trkpt>
   <trkpt lat="39.442935" lon="-6.371856">
    <ele>476.243</ele>
    <time>2013-12-16T15:26:36Z</time>
   </trkpt>
   <trkpt lat="39.443187" lon="-6.370857">
    <ele>480.227</ele>
    <time>2013-12-16T15:26:47Z</time>
   </trkpt>
   <trkpt lat="39.442821" lon="-6.369807">
    <ele>483.347</ele>
    <time>2013-12-16T15:26:59Z</time>
   </trkpt>
   <trkpt lat="39.442235" lon="-6.368803">
    <ele>487.058</ele>
    <time>2013-12-16T15:27:13Z</time>
   </trkpt>
   <trkpt lat="39.441487" lon="-6.367989">
    <ele>490.349</ele>
    <time>2013-12-16T15:27:26Z</time>
   </trkpt>
   <trkpt lat="39.440709" lon="-6.367366">
    <ele>499.955</ele>
    <time>2013-12-16T15:27:39Z</time>
   </trkpt>
   <trkpt lat="39.439936" lon="-6.366725">
    <ele>505.262</ele>
    <time>2013-12-16T15:27:55Z</time>
   </trkpt>
   <trkpt lat="39.439180" lon="-6.365958">
    <ele>507.731</ele>
    <time>2013-12-16T15:28:12Z</time>
   </trkpt>
   <trkpt lat="39.438405" lon="-6.365342">
    <ele>505.151</ele>
    <time>2013-12-16T15:28:29Z</time>
   </trkpt>
   <trkpt lat="39.437579" lon="-6.364753">
    <ele>506.876</ele>
    <time>2013-12-16T15:28:45Z</time>
   </trkpt>
   <trkpt lat="39.436821" lon="-6.364044">
    <ele>509.411</ele>
    <time>2013-12-16T15:29:00Z</time>
   </trkpt>
   <trkpt lat="39.435975" lon="-6.363563">
    <ele>513.121</ele>
    <time>2013-12-16T15:29:15Z</time>
   </trkpt>
   <trkpt lat="39.435160" lon="-6.362984">
    <ele>521.218</ele>
    <time>2013-12-16T15:29:30Z</time>
   </trkpt>
   <trkpt lat="39.434381" lon="-6.362384">
    <ele>528.987</ele>
    <time>2013-12-16T15:29:46Z</time>
   </trkpt>
   <trkpt lat="39.433591" lon="-6.361776">
    <ele>535.831</ele>
    <time>2013-12-16T15:30:03Z</time>
   </trkpt>
   <trkpt lat="39.432801" lon="-6.361142">
    <ele>536.360</ele>
    <time>2013-12-16T15:30:18Z</time>
   </trkpt>
   <trkpt lat="39.432013" lon="-6.360577">
    <ele>537.764</ele>
    <time>2013-12-16T15:30:32Z</time>
   </trkpt>
   <trkpt lat="39.431169" lon="-6.360065">
    <ele>542.972</ele>
    <time>2013-12-16T15:30:46Z</time>
   </trkpt>
   <trkpt lat="39.430333" lon="-6.359582">
    <ele>552.976</ele>
    <time>2013-12-16T15:31:00Z</time>
   </trkpt>
   <trkpt lat="39.429456" lon="-6.359192">
    <ele>559.141</ele>
    <time>2013-12-16T15:31:14Z</time>
   </trkpt>
   <trkpt lat="39.428676" lon="-6.358624">
    <ele>570.278</ele>
    <time>2013-12-16T15:31:29Z</time>
   </trkpt>
   <trkpt lat="39.427765" lon="-6.358215">
    <ele>569.248</ele>
    <time>2013-12-16T15:31:44Z</time>
   </trkpt>
   <trkpt lat="39.426907" lon="-6.357856">
    <ele>564.419</ele>
    <time>2013-12-16T15:31:58Z</time>
   </trkpt>
   <trkpt lat="39.426056" lon="-6.357391">
    <ele>566.967</ele>
    <time>2013-12-16T15:32:13Z</time>
   </trkpt>
   <trkpt lat="39.425191" lon="-6.356960">
    <ele>572.911</ele>
    <time>2013-12-16T15:32:28Z</time>
   </trkpt>
   <trkpt lat="39.424302" lon="-6.356585">
    <ele>570.240</ele>
    <time>2013-12-16T15:32:42Z</time>
   </trkpt>
   <trkpt lat="39.423453" lon="-6.356205">
    <ele>577.401</ele>
    <time>2013-12-16T15:32:56Z</time>
   </trkpt>
   <trkpt lat="39.422324" lon="-6.356375">
    <ele>590.169</ele>
    <time>2013-12-16T15:33:10Z</time>
   </trkpt>
   <trkpt lat="39.421570" lon="-6.355822">
    <ele>608.268</ele>
    <time>2013-12-16T15:33:25Z</time>
   </trkpt>
   <trkpt lat="39.420713" lon="-6.355589">
    <ele>615.317</ele>
    <time>2013-12-16T15:33:40Z</time>
   </trkpt>
   <trkpt lat="39.419815" lon="-6.355483">
    <ele>617.236</ele>
    <time>2013-12-16T15:33:55Z</time>
   </trkpt>
   <trkpt lat="39.418893" lon="-6.355388">
    <ele>611.810</ele>
    <time>2013-12-16T15:34:09Z</time>
   </trkpt>
   <trkpt lat="39.417995" lon="-6.355424">
    <ele>609.318</ele>
    <time>2013-12-16T15:34:22Z</time>
   </trkpt>
   <trkpt lat="39.417083" lon="-6.355490">
    <ele>606.639</ele>
    <time>2013-12-16T15:34:36Z</time>
   </trkpt>
   <trkpt lat="39.416143" lon="-6.355584">
    <ele>600.353</ele>
    <time>2013-12-16T15:34:50Z</time>
   </trkpt>
   <trkpt lat="39.415144" lon="-6.355462">
    <ele>601.034</ele>
    <time>2013-12-16T15:35:04Z</time>
   </trkpt>
   <trkpt lat="39.414218" lon="-6.355098">
    <ele>603.016</ele>
    <time>2013-12-16T15:35:18Z</time>
   </trkpt>
   <trkpt lat="39.413360" lon="-6.354761">
    <ele>605.703</ele>
    <time>2013-12-16T15:35:32Z</time>
   </trkpt>
   <trkpt lat="39.412497" lon="-6.354423">
    <ele>605.620</ele>
    <time>2013-12-16T15:35:46Z</time>
   </trkpt>
   <trkpt lat="39.411460" lon="-6.355145">
    <ele>594.932</ele>
    <time>2013-12-16T15:36:00Z</time>
   </trkpt>
   <trkpt lat="39.410555" lon="-6.355332">
    <ele>573.582</ele>
    <time>2013-12-16T15:36:13Z</time>
   </trkpt>
   <trkpt lat="39.409633" lon="-6.355318">
    <ele>554.494</ele>
    <time>2013-12-16T15:36:26Z</time>
   </trkpt>
   <trkpt lat="39.408698" lon="-6.355446">
    <ele>532.243</ele>
    <time>2013-12-16T15:36:39Z</time>
   </trkpt>
   <trkpt lat="39.407785" lon="-6.355565">
    <ele>528.383</ele>
    <time>2013-12-16T15:36:53Z</time>
   </trkpt>
   <trkpt lat="39.406852" lon="-6.355760">
    <ele>522.851</ele>
    <time>2013-12-16T15:37:08Z</time>
   </trkpt>
   <trkpt lat="39.405980" lon="-6.356014">
    <ele>524.644</ele>
    <time>2013-12-16T15:37:22Z</time>
   </trkpt>
   <trkpt lat="39.405066" lon="-6.356269">
    <ele>516.396</ele>
    <time>2013-12-16T15:37:36Z</time>
   </trkpt>
   <trkpt lat="39.404223" lon="-6.356669">
    <ele>503.235</ele>
    <time>2013-12-16T15:37:49Z</time>
   </trkpt>
   <trkpt lat="39.403560" lon="-6.357516">
    <ele>485.780</ele>
    <time>2013-12-16T15:38:03Z</time>
   </trkpt>
   <trkpt lat="39.403192" lon="-6.358675">
    <ele>477.225</ele>
    <time>2013-12-16T15:38:16Z</time>
   </trkpt>
   <trkpt lat="39.403030" lon="-6.359844">
    <ele>473.717</ele>
    <time>2013-12-16T15:38:28Z</time>
   </trkpt>
   <trkpt lat="39.402981" lon="-6.361061">
    <ele>470.138</ele>
    <time>2013-12-16T15:38:40Z</time>
   </trkpt>
   <trkpt lat="39.402971" lon="-6.362298">
    <ele>468.994</ele>
    <time>2013-12-16T15:38:52Z</time>
   </trkpt>
   <trkpt lat="39.402924" lon="-6.363495">
    <ele>467.434</ele>
    <time>2013-12-16T15:39:04Z</time>
   </trkpt>
   <trkpt lat="39.402857" lon="-6.364687">
    <ele>460.248</ele>
    <time>2013-12-16T15:39:16Z</time>
   </trkpt>
   <trkpt lat="39.402388" lon="-6.365634">
    <ele>461.805</ele>
    <time>2013-12-16T15:39:30Z</time>
   </trkpt>
   <trkpt lat="39.401513" lon="-6.365581">
    <ele>462.585</ele>
    <time>2013-12-16T15:39:46Z</time>
   </trkpt>
   <trkpt lat="39.400635" lon="-6.365913">
    <ele>468.816</ele>
    <time>2013-12-16T15:40:01Z</time>
   </trkpt>
   <trkpt lat="39.399913" lon="-6.366691">
    <ele>477.152</ele>
    <time>2013-12-16T15:40:16Z</time>
   </trkpt>
   <trkpt lat="39.399190" lon="-6.367486">
    <ele>483.840</ele>
    <time>2013-12-16T15:40:31Z</time>
   </trkpt>
   <trkpt lat="39.398396" lon="-6.368163">
    <ele>492.168</ele>
    <time>2013-12-16T15:40:47Z</time>
   </trkpt>
   <trkpt lat="39.397586" lon="-6.368746">
    <ele>493.622</ele>
    <time>2013-12-16T15:41:02Z</time>
   </trkpt>
   <trkpt lat="39.396889" lon="-6.369492">
    <ele>499.535</ele>
    <time>2013-12-16T15:41:16Z</time>
   </trkpt>
   <trkpt lat="39.396014" lon="-6.369924">
    <ele>500.442</ele>
    <time>2013-12-16T15:41:31Z</time>
   </trkpt>
   <trkpt lat="39.395485" lon="-6.370895">
    <ele>503.892</ele>
    <time>2013-12-16T15:41:44Z</time>
   </trkpt>
   <trkpt lat="39.395460" lon="-6.372162">
    <ele>506.486</ele>
    <time>2013-12-16T15:41:56Z</time>
   </trkpt>
   <trkpt lat="39.395702" lon="-6.373393">
    <ele>513.368</ele>
    <time>2013-12-16T15:42:07Z</time>
   </trkpt>
   <trkpt lat="39.396129" lon="-6.374514">
    <ele>517.127</ele>
    <time>2013-12-16T15:42:17Z</time>
   </trkpt>
   <trkpt lat="39.396658" lon="-6.375588">
    <ele>514.661</ele>
    <time>2013-12-16T15:42:27Z</time>
   </trkpt>
   <trkpt lat="39.397237" lon="-6.376519">
    <ele>514.272</ele>
    <time>2013-12-16T15:42:36Z</time>
   </trkpt>
   <trkpt lat="39.398061" lon="-6.377216">
    <ele>515.728</ele>
    <time>2013-12-16T15:42:45Z</time>
   </trkpt>
   <trkpt lat="39.398950" lon="-6.377806">
    <ele>515.121</ele>
    <time>2013-12-16T15:42:54Z</time>
   </trkpt>
   <trkpt lat="39.399807" lon="-6.378195">
    <ele>513.945</ele>
    <time>2013-12-16T15:43:02Z</time>
   </trkpt>
   <trkpt lat="39.400691" lon="-6.378619">
    <ele>509.852</ele>
    <time>2013-12-16T15:43:10Z</time>
   </trkpt>
   <trkpt lat="39.401575" lon="-6.378986">
    <ele>510.206</ele>
    <time>2013-12-16T15:43:18Z</time>
   </trkpt>
   <trkpt lat="39.402441" lon="-6.379327">
    <ele>511.584</ele>
    <time>2013-12-16T15:43:26Z</time>
   </trkpt>
   <trkpt lat="39.403433" lon="-6.379576">
    <ele>512.493</ele>
    <time>2013-12-16T15:43:35Z</time>
   </trkpt>
   <trkpt lat="39.404417" lon="-6.379891">
    <ele>511.737</ele>
    <time>2013-12-16T15:43:44Z</time>
   </trkpt>
   <trkpt lat="39.405339" lon="-6.379998">
    <ele>515.520</ele>
    <time>2013-12-16T15:43:52Z</time>
   </trkpt>
   <trkpt lat="39.406345" lon="-6.380022">
    <ele>513.813</ele>
    <time>2013-12-16T15:44:01Z</time>
   </trkpt>
   <trkpt lat="39.406841" lon="-6.379236">
    <ele>498.160</ele>
    <time>2013-12-16T15:44:11Z</time>
   </trkpt>
   <trkpt lat="39.407073" lon="-6.379313">
    <ele>469.744</ele>
    <time>2013-12-16T15:44:19Z</time>
   </trkpt>
   <trkpt lat="39.407726" lon="-6.379414">
    <ele>462.127</ele>
    <time>2013-12-16T15:44:27Z</time>
   </trkpt>
   <trkpt lat="39.408132" lon="-6.380557">
    <ele>454.007</ele>
    <time>2013-12-16T15:44:37Z</time>
   </trkpt>
   <trkpt lat="39.408494" lon="-6.381713">
    <ele>457.508</ele>
    <time>2013-12-16T15:44:47Z</time>
   </trkpt>
   <trkpt lat="39.409272" lon="-6.382460">
    <ele>468.257</ele>
    <time>2013-12-16T15:44:56Z</time>
   </trkpt>
   <trkpt lat="39.410245" lon="-6.382712">
    <ele>478.335</ele>
    <time>2013-12-16T15:45:05Z</time>
   </trkpt>
   <trkpt lat="39.411162" lon="-6.382848">
    <ele>489.723</ele>
    <time>2013-12-16T15:45:13Z</time>
   </trkpt>
   <trkpt lat="39.412058" lon="-6.383096">
    <ele>503.650</ele>
    <time>2013-12-16T15:45:21Z</time>
   </trkpt>
   <trkpt lat="39.412955" lon="-6.383343">
    <ele>516.669</ele>
    <time>2013-12-16T15:45:29Z</time>
   </trkpt>
   <trkpt lat="39.413846" lon="-6.383859">
    <ele>531.819</ele>
    <time>2013-12-16T15:45:38Z</time>
   </trkpt>
   <trkpt lat="39.414482" lon="-6.384641">
    <ele>545.291</ele>
    <time>2013-12-16T15:45:46Z</time>
   </trkpt>
   <trkpt lat="39.414397" lon="-6.384187">
    <ele>559.340</ele>
    <time>2013-12-16T15:45:58Z</time>
   </trkpt>
   <trkpt lat="39.414472" lon="-6.383082">
    <ele>574.426</ele>
    <time>2013-12-16T15:46:10Z</time>
   </trkpt>
   <trkpt lat="39.414155" lon="-6.381980">
    <ele>578.201</ele>
    <time>2013-12-16T15:46:24Z</time>
   </trkpt>
   <trkpt lat="39.413887" lon="-6.380857">
    <ele>572.637</ele>
    <time>2013-12-16T15:46:37Z</time>
   </trkpt>
   <trkpt lat="39.413854" lon="-6.379639">
    <ele>562.666</ele>
    <time>2013-12-16T15:46:49Z</time>
   </trkpt>
   <trkpt lat="39.413520" lon="-6.379440">
    <ele>553.761</ele>
    <time>2013-12-16T15:47:02Z</time>
   </trkpt>
   <trkpt lat="39.413420" lon="-6.380667">
    <ele>549.316</ele>
    <time>2013-12-16T15:47:14Z</time>
   </trkpt>
   <trkpt lat="39.413745" lon="-6.381844">
    <ele>548.057</ele>
    <time>2013-12-16T15:47:25Z</time>
   </trkpt>
   <trkpt lat="39.414214" lon="-6.382908">
    <ele>543.816</ele>
    <time>2013-12-16T15:47:35Z</time>
   </trkpt>
   <trkpt lat="39.414716" lon="-6.383947">
    <ele>543.835</ele>
    <time>2013-12-16T15:47:45Z</time>
   </trkpt>
   <trkpt lat="39.414997" lon="-6.385113">
    <ele>535.845</ele>
    <time>2013-12-16T15:47:55Z</time>
   </trkpt>
   <trkpt lat="39.415272" lon="-6.386255">
    <ele>531.820</ele>
    <time>2013-12-16T15:48:05Z</time>
   </trkpt>
   <trkpt lat="39.415820" lon="-6.387249">
    <ele>528.630</ele>
    <time>2013-12-16T15:48:14Z</time>
   </trkpt>
   <trkpt lat="39.416336" lon="-6.388220">
    <ele>529.474</ele>
    <time>2013-12-16T15:48:23Z</time>
   </trkpt>
   <trkpt lat="39.416611" lon="-6.389376">
    <ele>537.441</ele>
    <time>2013-12-16T15:48:33Z</time>
   </trkpt>
   <trkpt lat="39.416427" lon="-6.390529">
    <ele>532.229</ele>
    <time>2013-12-16T15:48:44Z</time>
   </trkpt>
   <trkpt lat="39.416077" lon="-6.391600">
    <ele>519.808</ele>
    <time>2013-12-16T15:48:55Z</time>
   </trkpt>
   <trkpt lat="39.415726" lon="-6.392778">
    <ele>508.712</ele>
    <time>2013-12-16T15:49:07Z</time>
   </trkpt>
   <trkpt lat="39.415347" lon="-6.393912">
    <ele>502.552</ele>
    <time>2013-12-16T15:49:19Z</time>
   </trkpt>
   <trkpt lat="39.414832" lon="-6.394895">
    <ele>497.274</ele>
    <time>2013-12-16T15:49:31Z</time>
   </trkpt>
   <trkpt lat="39.414600" lon="-6.396048">
    <ele>495.763</ele>
    <time>2013-12-16T15:49:42Z</time>
   </trkpt>
   <trkpt lat="39.414548" lon="-6.397223">
    <ele>497.952</ele>
    <time>2013-12-16T15:49:52Z</time>
   </trkpt>
   <trkpt lat="39.414897" lon="-6.398337">
    <ele>498.635</ele>
    <time>2013-12-16T15:50:01Z</time>
   </trkpt>
   <trkpt lat="39.415601" lon="-6.399059">
    <ele>497.819</ele>
    <time>2013-12-16T15:50:09Z</time>
   </trkpt>
   <trkpt lat="39.416415" lon="-6.399665">
    <ele>495.612</ele>
    <time>2013-12-16T15:50:17Z</time>
   </trkpt>
   <trkpt lat="39.417321" lon="-6.400230">
    <ele>494.499</ele>
    <time>2013-12-16T15:50:26Z</time>
   </trkpt>
   <trkpt lat="39.418199" lon="-6.400563">
    <ele>492.395</ele>
    <time>2013-12-16T15:50:34Z</time>
   </trkpt>
   <trkpt lat="39.419085" lon="-6.400896">
    <ele>490.622</ele>
    <time>2013-12-16T15:50:42Z</time>
   </trkpt>
   <trkpt lat="39.419991" lon="-6.401136">
    <ele>488.975</ele>
    <time>2013-12-16T15:50:50Z</time>
   </trkpt>
   <trkpt lat="39.420906" lon="-6.401311">
    <ele>488.941</ele>
    <time>2013-12-16T15:50:58Z</time>
   </trkpt>
   <trkpt lat="39.421826" lon="-6.401500">
    <ele>488.672</ele>
    <time>2013-12-16T15:51:06Z</time>
   </trkpt>
   <trkpt lat="39.422569" lon="-6.402118">
    <ele>489.490</ele>
    <time>2013-12-16T15:51:14Z</time>
   </trkpt>
   <trkpt lat="39.423395" lon="-6.402855">
    <ele>491.918</ele>
    <time>2013-12-16T15:51:23Z</time>
   </trkpt>
   <trkpt lat="39.424243" lon="-6.403529">
    <ele>498.827</ele>
    <time>2013-12-16T15:51:32Z</time>
   </trkpt>
   <trkpt lat="39.424853" lon="-6.404447">
    <ele>496.379</ele>
    <time>2013-12-16T15:51:41Z</time>
   </trkpt>
   <trkpt lat="39.425300" lon="-6.405459">
    <ele>500.663</ele>
    <time>2013-12-16T15:51:50Z</time>
   </trkpt>
   <trkpt lat="39.426087" lon="-6.406172">
    <ele>504.595</ele>
    <time>2013-12-16T15:51:59Z</time>
   </trkpt>
   <trkpt lat="39.426685" lon="-6.407113">
    <ele>504.646</ele>
    <time>2013-12-16T15:52:08Z</time>
   </trkpt>
   <trkpt lat="39.427123" lon="-6.408106">
    <ele>504.130</ele>
    <time>2013-12-16T15:52:17Z</time>
   </trkpt>
   <trkpt lat="39.426481" lon="-6.408919">
    <ele>492.422</ele>
    <time>2013-12-16T15:52:31Z</time>
   </trkpt>
   <trkpt lat="39.425650" lon="-6.409457">
    <ele>478.900</ele>
    <time>2013-12-16T15:52:46Z</time>
   </trkpt>
   <trkpt lat="39.424850" lon="-6.410019">
    <ele>460.413</ele>
    <time>2013-12-16T15:53:01Z</time>
   </trkpt>
   <trkpt lat="39.424003" lon="-6.410534">
    <ele>447.030</ele>
    <time>2013-12-16T15:53:16Z</time>
   </trkpt>
   <trkpt lat="39.423680" lon="-6.411488">
    <ele>433.710</ele>
    <time>2013-12-16T15:53:29Z</time>
   </trkpt>
   <trkpt lat="39.424426" lon="-6.411293">
    <ele>433.374</ele>
    <time>2013-12-16T15:53:38Z</time>
   </trkpt>
   <trkpt lat="39.425339" lon="-6.410854">
    <ele>434.873</ele>
    <time>2013-12-16T15:53:47Z</time>
   </trkpt>
   <trkpt lat="39.426435" lon="-6.411372">
    <ele>440.410</ele>
    <time>2013-12-16T15:53:55Z</time>
   </trkpt>
   <trkpt lat="39.427335" lon="-6.411542">
    <ele>446.875</ele>
    <time>2013-12-16T15:54:03Z</time>
   </trkpt>
   <trkpt lat="39.428343" lon="-6.411593">
    <ele>453.685</ele>
    <time>2013-12-16T15:54:12Z</time>
   </trkpt>
   <trkpt lat="39.429257" lon="-6.411598">
    <ele>459.438</ele>
    <time>2013-12-16T15:54:20Z</time>
   </trkpt>
   <trkpt lat="39.430191" lon="-6.411576">
    <ele>463.294</ele>
    <time>2013-12-16T15:54:28Z</time>
   </trkpt>
   <trkpt lat="39.431169" lon="-6.411452">
    <ele>468.504</ele>
    <time>2013-12-16T15:54:37Z</time>
   </trkpt>
   <trkpt lat="39.432171" lon="-6.411294">
    <ele>472.769</ele>
    <time>2013-12-16T15:54:46Z</time>
   </trkpt>
   <trkpt lat="39.433044" lon="-6.411011">
    <ele>474.197</ele>
    <time>2013-12-16T15:54:54Z</time>
   </trkpt>
   <trkpt lat="39.433933" lon="-6.410535">
    <ele>478.273</ele>
    <time>2013-12-16T15:55:03Z</time>
   </trkpt>
   <trkpt lat="39.434843" lon="-6.410072">
    <ele>481.847</ele>
    <time>2013-12-16T15:55:12Z</time>
   </trkpt>
   <trkpt lat="39.435737" lon="-6.409953">
    <ele>483.941</ele>
    <time>2013-12-16T15:55:20Z</time>
   </trkpt>
   <trkpt lat="39.436713" lon="-6.409710">
    <ele>485.265</ele>
    <time>2013-12-16T15:55:29Z</time>
   </trkpt>
   <trkpt lat="39.437690" lon="-6.409445">
    <ele>479.172</ele>
    <time>2013-12-16T15:55:38Z</time>
   </trkpt>
   <trkpt lat="39.438609" lon="-6.409114">
    <ele>481.289</ele>
    <time>2013-12-16T15:55:47Z</time>
   </trkpt>
   <trkpt lat="39.439484" lon="-6.408641">
    <ele>483.295</ele>
    <time>2013-12-16T15:55:56Z</time>
   </trkpt>
   <trkpt lat="39.440379" lon="-6.408150">
    <ele>483.319</ele>
    <time>2013-12-16T15:56:05Z</time>
   </trkpt>
   <trkpt lat="39.441208" lon="-6.407572">
    <ele>485.212</ele>
    <time>2013-12-16T15:56:14Z</time>
   </trkpt>
   <trkpt lat="39.442016" lon="-6.406950">
    <ele>484.773</ele>
    <time>2013-12-16T15:56:23Z</time>
   </trkpt>
   <trkpt lat="39.442790" lon="-6.406259">
    <ele>486.718</ele>
    <time>2013-12-16T15:56:32Z</time>
   </trkpt>
   <trkpt lat="39.443563" lon="-6.405562">
    <ele>491.815</ele>
    <time>2013-12-16T15:56:41Z</time>
   </trkpt>
   <trkpt lat="39.444272" lon="-6.404819">
    <ele>494.658</ele>
    <time>2013-12-16T15:56:50Z</time>
   </trkpt>
   <trkpt lat="39.444988" lon="-6.404016">
    <ele>498.794</ele>
    <time>2013-12-16T15:56:59Z</time>
   </trkpt>
   <trkpt lat="39.445706" lon="-6.403209">
    <ele>508.075</ele>
    <time>2013-12-16T15:57:08Z</time>
   </trkpt>
   <trkpt lat="39.446415" lon="-6.402467">
    <ele>514.500</ele>
    <time>2013-12-16T15:57:17Z</time>
   </trkpt>
   <trkpt lat="39.447148" lon="-6.401615">
    <ele>519.879</ele>
    <time>2013-12-16T15:57:27Z</time>
   </trkpt>
   <trkpt lat="39.447808" lon="-6.400835">
    <ele>523.961</ele>
    <time>2013-12-16T15:57:36Z</time>
   </trkpt>
   <trkpt lat="39.448578" lon="-6.400149">
    <ele>519.702</ele>
    <time>2013-12-16T15:57:45Z</time>
   </trkpt>
   <trkpt lat="39.449414" lon="-6.399553">
    <ele>523.233</ele>
    <time>2013-12-16T15:57:54Z</time>
   </trkpt>
   <trkpt lat="39.450239" lon="-6.398964">
    <ele>528.084</ele>
    <time>2013-12-16T15:58:03Z</time>
   </trkpt>
   <trkpt lat="39.451107" lon="-6.398436">
    <ele>533.237</ele>
    <time>2013-12-16T15:58:12Z</time>
   </trkpt>
   <trkpt lat="39.452076" lon="-6.398083">
    <ele>534.579</ele>
    <time>2013-12-16T15:58:21Z</time>
   </trkpt>
   <trkpt lat="39.452959" lon="-6.397833">
    <ele>536.523</ele>
    <time>2013-12-16T15:58:29Z</time>
   </trkpt>
   <trkpt lat="39.453938" lon="-6.397510">
    <ele>540.180</ele>
    <time>2013-12-16T15:58:38Z</time>
   </trkpt>
   <trkpt lat="39.454832" lon="-6.397275">
    <ele>542.857</ele>
    <time>2013-12-16T15:58:46Z</time>
   </trkpt>
   <trkpt lat="39.455760" lon="-6.397097">
    <ele>543.012</ele>
    <time>2013-12-16T15:58:54Z</time>
   </trkpt>
   <trkpt lat="39.456716" lon="-6.397095">
    <ele>548.147</ele>
    <time>2013-12-16T15:59:03Z</time>
   </trkpt>
   <trkpt lat="39.457720" lon="-6.397219">
    <ele>548.448</ele>
    <time>2013-12-16T15:59:12Z</time>
   </trkpt>
   <trkpt lat="39.458678" lon="-6.397105">
    <ele>548.725</ele>
    <time>2013-12-16T15:59:21Z</time>
   </trkpt>
   <trkpt lat="39.459561" lon="-6.397368">
    <ele>547.201</ele>
    <time>2013-12-16T15:59:29Z</time>
   </trkpt>
   <trkpt lat="39.460446" lon="-6.397654">
    <ele>548.725</ele>
    <time>2013-12-16T15:59:37Z</time>
   </trkpt>
   <trkpt lat="39.461343" lon="-6.397817">
    <ele>549.136</ele>
    <time>2013-12-16T15:59:45Z</time>
   </trkpt>
   <trkpt lat="39.462270" lon="-6.397964">
    <ele>547.822</ele>
    <time>2013-12-16T15:59:53Z</time>
   </trkpt>
   <trkpt lat="39.463184" lon="-6.397961">
    <ele>550.580</ele>
    <time>2013-12-16T16:00:01Z</time>
   </trkpt>
   <trkpt lat="39.464094" lon="-6.397526">
    <ele>548.375</ele>
    <time>2013-12-16T16:00:10Z</time>
   </trkpt>
   <trkpt lat="39.464510" lon="-6.396613">
    <ele>549.042</ele>
    <time>2013-12-16T16:00:19Z</time>
   </trkpt>
   <trkpt lat="39.464660" lon="-6.395487">
    <ele>556.478</ele>
    <time>2013-12-16T16:00:31Z</time>
   </trkpt>
   <trkpt lat="39.464537" lon="-6.394265">
    <ele>567.149</ele>
    <time>2013-12-16T16:00:45Z</time>
   </trkpt>
   <trkpt lat="39.464485" lon="-6.393104">
    <ele>573.009</ele>
    <time>2013-12-16T16:00:58Z</time>
   </trkpt>
   <trkpt lat="39.465198" lon="-6.393005">
    <ele>568.976</ele>
    <time>2013-12-16T16:01:07Z</time>
   </trkpt>
   <trkpt lat="39.464786" lon="-6.393766">
    <ele>572.647</ele>
    <time>2013-12-16T16:01:19Z</time>
   </trkpt>
   <trkpt lat="39.464655" lon="-6.392713">
    <ele>576.616</ele>
    <time>2013-12-16T16:01:32Z</time>
   </trkpt>
   <trkpt lat="39.464709" lon="-6.391479">
    <ele>579.738</ele>
    <time>2013-12-16T16:01:45Z</time>
   </trkpt>
   <trkpt lat="39.464686" lon="-6.390266">
    <ele>581.917</ele>
    <time>2013-12-16T16:01:58Z</time>
   </trkpt>
   <trkpt lat="39.464475" lon="-6.389064">
    <ele>583.693</ele>
    <time>2013-12-16T16:02:12Z</time>
   </trkpt>
   <trkpt lat="39.463947" lon="-6.388041">
    <ele>584.072</ele>
    <time>2013-12-16T16:02:27Z</time>
   </trkpt>
   <trkpt lat="39.463216" lon="-6.387360">
    <ele>591.783</ele>
    <time>2013-12-16T16:02:42Z</time>
   </trkpt>
   <trkpt lat="39.462377" lon="-6.386841">
    <ele>603.196</ele>
    <time>2013-12-16T16:02:58Z</time>
   </trkpt>
   <trkpt lat="39.461466" lon="-6.386616">
    <ele>610.446</ele>
    <time>2013-12-16T16:03:13Z</time>
   </trkpt>
   <trkpt lat="39.459663" lon="-6.387473">
    <ele>619.000</ele>
    <time>2013-12-16T16:03:28Z</time>
   </trkpt>
   <trkpt lat="39.458631" lon="-6.387295">
    <ele>624.759</ele>
    <time>2013-12-16T16:03:43Z</time>
   </trkpt>
   <trkpt lat="39.457894" lon="-6.386635">
    <ele>630.169</ele>
    <time>2013-12-16T16:03:58Z</time>
   </trkpt>
   <trkpt lat="39.457766" lon="-6.385489">
    <ele>632.482</ele>
    <time>2013-12-16T16:04:13Z</time>
   </trkpt>
   <trkpt lat="39.455945" lon="-6.386268">
    <ele>637.611</ele>
    <time>2013-12-16T16:04:28Z</time>
   </trkpt>
   <trkpt lat="39.455065" lon="-6.386048">
    <ele>641.602</ele>
    <time>2013-12-16T16:04:42Z</time>
   </trkpt>
   <trkpt lat="39.454251" lon="-6.385411">
    <ele>644.312</ele>
    <time>2013-12-16T16:04:57Z</time>
   </trkpt>
   <trkpt lat="39.453387" lon="-6.385055">
    <ele>646.829</ele>
    <time>2013-12-16T16:05:12Z</time>
   </trkpt>
   <trkpt lat="39.452558" lon="-6.384628">
    <ele>649.095</ele>
    <time>2013-12-16T16:05:28Z</time>
   </trkpt>
   <trkpt lat="39.451614" lon="-6.384013">
    <ele>650.679</ele>
    <time>2013-12-16T16:05:44Z</time>
   </trkpt>
   <trkpt lat="39.451698" lon="-6.382477">
    <ele>652.786</ele>
    <time>2013-12-16T16:06:00Z</time>
   </trkpt>
   <trkpt lat="39.450904" lon="-6.382052">
    <ele>654.339</ele>
    <time>2013-12-16T16:06:15Z</time>
   </trkpt>
   <trkpt lat="39.449049" lon="-6.383464">
    <ele>658.812</ele>
    <time>2013-12-16T16:06:30Z</time>
   </trkpt>
   <trkpt lat="39.448305" lon="-6.383420">
    <ele>662.870</ele>
    <time>2013-12-16T16:06:44Z</time>
   </trkpt>
   <trkpt lat="39.447978" lon="-6.382919">
    <ele>662.146</ele>
    <time>2013-12-16T16:06:58Z</time>
   </trkpt>
   <trkpt lat="39.446219" lon="-6.384184">
    <ele>662.575</ele>
    <time>2013-12-16T16:07:12Z</time>
   </trkpt>
   <trkpt lat="39.446116" lon="-6.384271">
    <ele>664.174</ele>
    <time>2013-12-16T16:07:25Z</time>
   </trkpt>
   <trkpt lat="39.444716" lon="-6.385590">
    <ele>667.762</ele>
    <time>2013-12-16T16:07:38Z</time>
   </trkpt>
   <trkpt lat="39.444786" lon="-6.385241">
    <ele>664.821</ele>
    <time>2013-12-16T16:07:51Z</time>
   </trkpt>
   <trkpt lat="39.444540" lon="-6.386324">
    <ele>663.722</ele>
    <time>2013-12-16T16:08:03Z</time>
   </trkpt>
   <trkpt lat="39.442683" lon="-6.387647">
    <ele>668.404</ele>
    <time>2013-12-16T16:08:16Z</time>
   </trkpt>
   <trkpt lat="39.442056" lon="-6.388374">
    <ele>673.472</ele>
    <time>2013-12-16T16:08:30Z</time>
   </trkpt>
   <trkpt lat="39.441028" lon="-6.389237">
    <ele>658.235</ele>
    <time>2013-12-16T16:08:43Z</time>
   </trkpt>
   <trkpt lat="39.440071" lon="-6.389721">
    <ele>634.200</ele>
    <time>2013-12-16T16:08:58Z</time>
   </trkpt>
   <trkpt lat="39.439231" lon="-6.388924">
    <ele>617.849</ele>
    <time>2013-12-16T16:09:13Z</time>
   </trkpt>
   <trkpt lat="39.438552" lon="-6.388140">
    <ele>596.928</ele>
    <time>2013-12-16T16:09:28Z</time>
   </trkpt>
   <trkpt lat="39.437899" lon="-6.387249">
    <ele>581.751</ele>
    <time>2013-12-16T16:09:43Z</time>
   </trkpt>
   <trkpt lat="39.437296" lon="-6.386397">
    <ele>570.036</ele>
    <time>2013-12-16T16:09:58Z</time>
   </trkpt>
   <trkpt lat="39.436449" lon="-6.385928">
    <ele>572.592</ele>
    <time>2013-12-16T16:10:14Z</time>
   </trkpt>
   <trkpt lat="39.435771" lon="-6.384987">
    <ele>564.812</ele>
    <time>2013-12-16T16:10:29Z</time>
   </trkpt>
   <trkpt lat="39.435142" lon="-6.384158">
    <ele>550.263</ele>
    <time>2013-12-16T16:10:44Z</time>
   </trkpt>
   <trkpt lat="39.434347" lon="-6.383459">
    <ele>535.255</ele>
    <time>2013-12-16T16:11:00Z</time>
   </trkpt>
   <trkpt lat="39.433528" lon="-6.382895">
    <ele>526.947</ele>
    <time>2013-12-16T16:11:16Z</time>
   </trkpt>
   <trkpt lat="39.432714" lon="-6.382344">
    <ele>523.061</ele>
    <time>2013-12-16T16:11:32Z</time>
   </trkpt>
   <trkpt lat="39.432181" lon="-6.382315">
    <ele>529.432</ele>
    <time>2013-12-16T16:11:48Z</time>
   </trkpt>
   <trkpt lat="39.433085" lon="-6.382910">
    <ele>524.350</ele>
    <time>2013-12-16T16:11:57Z</time>
   </trkpt>
   <trkpt lat="39.433880" lon="-6.383477">
    <ele>524.653</ele>
    <time>2013-12-16T16:12:05Z</time>
   </trkpt>
   <trkpt lat="39.434744" lon="-6.384166">
    <ele>526.322</ele>
    <time>2013-12-16T16:12:14Z</time>
   </trkpt>
   <trkpt lat="39.435614" lon="-6.384792">
    <ele>535.434</ele>
    <time>2013-12-16T16:12:23Z</time>
   </trkpt>
   <trkpt lat="39.436596" lon="-6.385151">
    <ele>547.451</ele>
    <time>2013-12-16T16:12:32Z</time>
   </trkpt>
   <trkpt lat="39.437494" lon="-6.384902">
    <ele>556.953</ele>
    <time>2013-12-16T16:12:40Z</time>
   </trkpt>
   <trkpt lat="39.438329" lon="-6.384228">
    <ele>564.378</ele>
    <time>2013-12-16T16:12:49Z</time>
   </trkpt>
   <trkpt lat="39.438960" lon="-6.383416">
    <ele>563.653</ele>
    <time>2013-12-16T16:12:58Z</time>
   </trkpt>
   <trkpt lat="39.439522" lon="-6.382367">
    <ele>558.276</ele>
    <time>2013-12-16T16:13:08Z</time>
   </trkpt>
   <trkpt lat="39.440078" lon="-6.381230">
    <ele>546.195</ele>
    <time>2013-12-16T16:13:18Z</time>
   </trkpt>
   <trkpt lat="39.440522" lon="-6.380097">
    <ele>532.433</ele>
    <time>2013-12-16T16:13:28Z</time>
   </trkpt>
   <trkpt lat="39.440703" lon="-6.379022">
    <ele>521.391</ele>
    <time>2013-12-16T16:13:38Z</time>
   </trkpt>
   <trkpt lat="39.440263" lon="-6.378277">
    <ele>505.886</ele>
    <time>2013-12-16T16:13:52Z</time>
   </trkpt>
   <trkpt lat="39.439382" lon="-6.378239">
    <ele>496.243</ele>
    <time>2013-12-16T16:14:39Z</time>
   </trkpt>
  </trkseg>
 </trk>
 <trk>
  <name>ACTIVE LOG175715</name>
  <trkseg>
   <trkpt lat="39.439463" lon="-6.377925">
    <ele>526.720</ele>
    <time>2013-12-16T16:57:15Z</time>
   </trkpt>
  </trkseg>
 </trk>
 <trk>
  <name>ACTIVE LOG175912</name>
  <trkseg>
   <trkpt lat="39.439463" lon="-6.377925">
    <ele>525.243</ele>
    <time>2013-12-16T16:59:12Z</time>
   </trkpt>
  </trkseg>
 </trk>
</gpx>
